Aviation Digital Data Service (ADDS)

Output produced by METARs form (1924 UTC 26 September 2021)
found at http://www.aviationweather.gov/metar/data/
 
Forecast for: KGFK (GRAND FORKS , ND, US)
Text: KGFK 261720Z 2618/2718 01011KT P6SM FEW200
Forecast period: 1800 UTC 26 September 2021 to 0000 UTC 27 September 2021
Forecast type: FROM: standard forecast or significant change
Winds: from the N (10 degrees) at 13 MPH (11 knots; 5.7 m/s)
Visibility: 6 or more miles (10+ km)
Ceiling: at least 12,000 feet AGL
Clouds: few clouds at 20000 feet AGL
Weather: no significant weather forecast for this period
Text: FM270000 VRB05KT P6SM SKC
Forecast period: 0000 to 1600 UTC 27 September 2021
Forecast type: FROM: standard forecast or significant change
Winds: variable direction winds at 6 MPH (5 knots; 2.6 m/s)
Visibility: 6 or more miles (10+ km)
Clouds: clear skies
Weather: no significant weather forecast for this period
Text: FM271600 16008KT P6SM SCT200
Forecast period: 1600 to 1800 UTC 27 September 2021
Forecast type: FROM: standard forecast or significant change
Winds: from the SSE (160 degrees) at 9 MPH (8 knots; 4.1 m/s)
Visibility: 6 or more miles (10+ km)
Ceiling: at least 12,000 feet AGL
Clouds: scattered clouds at 20000 feet AGL
Weather: no significant weather forecast for this period